createdAt,value
2023-03-21T00:00:40.304Z,100.00
2023-03-21T00:03:06.887Z,100.00
2023-03-21T00:05:33.340Z,100.00
2023-03-21T00:08:01.167Z,100.00
2023-03-21T00:10:39.562Z,100.00
2023-03-21T00:13:13.064Z,100.00
2023-03-21T00:16:03.454Z,100.00
2023-03-21T00:18:30.764Z,100.00
2023-03-21T00:21:35.551Z,100.00
2023-03-21T00:23:49.972Z,100.00
2023-03-21T00:26:17.175Z,100.00
2023-03-21T00:28:43.842Z,100.00
2023-03-21T00:31:10.898Z,100.00
2023-03-21T00:33:39.467Z,100.00
2023-03-21T00:36:07.220Z,100.00
2023-03-21T00:38:34.456Z,100.00
2023-03-21T00:41:18.911Z,100.00
2023-03-21T00:43:47.751Z,100.00
2023-03-21T00:46:15.833Z,100.00
2023-03-21T00:48:43.635Z,100.00
2023-03-21T00:51:21.726Z,100.00
2023-03-21T00:53:48.115Z,100.00
2023-03-21T00:56:14.573Z,100.00
2023-03-21T00:58:40.923Z,100.00
2023-03-21T01:01:09.376Z,100.00
2023-03-21T01:03:42.698Z,100.00
2023-03-21T01:06:13.600Z,100.00
2023-03-21T01:08:57.808Z,100.00
2023-03-21T01:11:28.308Z,100.00
2023-03-21T01:14:07.154Z,100.00
2023-03-21T01:16:39.737Z,100.00
2023-03-21T01:19:14.881Z,100.00
2023-03-21T01:21:44.912Z,100.00
2023-03-21T01:24:11.482Z,100.00
2023-03-21T01:26:38.009Z,100.00
2023-03-21T01:29:05.463Z,100.00
2023-03-21T01:31:33.448Z,100.00
2023-03-21T01:33:59.826Z,100.00
2023-03-21T01:36:26.749Z,100.00
2023-03-21T01:38:53.807Z,100.00
2023-03-21T01:41:41.997Z,100.00
2023-03-21T01:44:15.461Z,100.00
2023-03-21T01:46:54.542Z,100.00
2023-03-21T01:49:34.366Z,100.00
2023-03-21T01:52:12.776Z,100.00
2023-03-21T01:54:45.287Z,100.00
2023-03-21T01:57:22.094Z,100.00
2023-03-21T01:59:54.342Z,100.00
2023-03-21T02:02:25.760Z,100.00
2023-03-21T02:04:56.046Z,100.00
2023-03-21T02:07:29.253Z,100.00
2023-03-21T02:09:57.883Z,100.00
2023-03-21T02:12:25.951Z,100.00
2023-03-21T02:14:54.213Z,100.00
2023-03-21T02:17:35.601Z,100.00
2023-03-21T02:20:11.745Z,100.00
2023-03-21T02:22:52.929Z,100.00
2023-03-21T02:25:30.468Z,100.00
2023-03-21T02:28:04.723Z,100.00
2023-03-21T02:30:49.301Z,100.00
2023-03-21T02:33:35.803Z,100.00
2023-03-21T02:36:14.935Z,100.00
2023-03-21T02:39:08.013Z,100.00
2023-03-21T02:41:58.099Z,100.00
2023-03-21T02:44:30.279Z,100.00
2023-03-21T02:47:06.836Z,100.00
2023-03-21T02:49:59.578Z,100.00
2023-03-21T02:52:38.511Z,100.00
2023-03-21T02:55:35.878Z,100.00
2023-03-21T02:58:12.392Z,100.00
2023-03-21T03:00:40.561Z,100.00
2023-03-21T03:03:10.522Z,100.00
2023-03-21T03:05:44.018Z,100.00
2023-03-21T03:08:17.130Z,100.00
2023-03-21T03:10:59.034Z,100.00
2023-03-21T03:13:54.157Z,100.00
2023-03-21T03:16:36.641Z,100.00
2023-03-21T03:19:07.937Z,100.00
2023-03-21T03:21:37.094Z,100.00
2023-03-21T03:24:26.545Z,100.00
2023-03-21T03:26:55.957Z,100.00
2023-03-21T03:29:24.747Z,100.00
2023-03-21T03:32:01.067Z,100.00
2023-03-21T03:34:34.768Z,100.00
2023-03-21T03:37:05.341Z,100.00
2023-03-21T03:39:41.613Z,100.00
2023-03-21T03:42:28.568Z,100.00
2023-03-21T03:44:56.115Z,100.00
2023-03-21T03:47:55.929Z,100.00
2023-03-21T03:50:34.670Z,100.00
2023-03-21T03:53:25.272Z,100.00
2023-03-21T03:55:54.224Z,100.00
2023-03-21T03:58:27.445Z,100.00
2023-03-21T04:01:00.599Z,100.00
2023-03-21T04:03:28.211Z,100.00
2023-03-21T04:05:54.715Z,100.00
2023-03-21T04:08:23.209Z,100.00
2023-03-21T04:10:49.736Z,100.00
2023-03-21T04:13:16.210Z,100.00
2023-03-21T04:15:44.203Z,100.00
2023-03-21T04:18:10.757Z,100.00
2023-03-21T04:20:37.622Z,100.00
2023-03-21T04:23:05.500Z,100.00
2023-03-21T04:25:38.672Z,100.00
2023-03-21T04:28:14.157Z,100.00
2023-03-21T04:30:46.968Z,100.00
2023-03-21T04:33:19.784Z,100.00
2023-03-21T04:35:46.223Z,100.00
2023-03-21T04:38:12.789Z,100.00
2023-03-21T04:40:39.416Z,100.00
2023-03-21T04:43:06.949Z,100.00
2023-03-21T04:45:33.427Z,100.00
2023-03-21T04:48:00.155Z,100.00
2023-03-21T04:50:26.593Z,100.00
2023-03-21T04:52:53.074Z,100.00
2023-03-21T04:55:22.608Z,100.00
2023-03-21T04:57:49.093Z,100.00
2023-03-21T05:00:16.747Z,100.00
2023-03-21T05:02:43.238Z,100.00
2023-03-21T05:05:11.832Z,100.00
2023-03-21T05:07:39.971Z,100.00
2023-03-21T05:10:08.180Z,100.00
2023-03-21T05:12:34.815Z,100.00
2023-03-21T05:15:01.672Z,100.00
2023-03-21T05:17:31.101Z,100.00
2023-03-21T05:19:57.479Z,100.00
2023-03-21T05:22:26.632Z,100.00
2023-03-21T05:24:55.214Z,100.00
2023-03-21T05:27:38.042Z,100.00
2023-03-21T05:30:11.498Z,100.00
2023-03-21T05:32:38.356Z,100.00
2023-03-21T05:35:05.218Z,100.00
2023-03-21T05:37:34.275Z,100.00
2023-03-21T05:40:00.753Z,100.00
2023-03-21T05:42:27.371Z,100.00
2023-03-21T05:44:53.788Z,100.00
2023-03-21T05:47:20.270Z,100.00
2023-03-21T05:49:47.287Z,100.00
2023-03-21T05:52:13.720Z,100.00
2023-03-21T05:54:40.245Z,100.00
2023-03-21T05:57:10.568Z,100.00
2023-03-21T05:59:37.094Z,100.00
2023-03-21T06:02:04.111Z,100.00
2023-03-21T06:04:30.761Z,100.00
2023-03-21T06:06:57.221Z,100.00
2023-03-21T06:09:24.978Z,100.00
2023-03-21T06:11:54.080Z,100.00
2023-03-21T06:14:21.249Z,100.00
2023-03-21T06:16:47.717Z,100.00
2023-03-21T06:19:14.618Z,100.00
2023-03-21T06:21:41.112Z,100.00
2023-03-21T06:24:07.789Z,100.00
2023-03-21T06:26:41.749Z,100.00
2023-03-21T06:29:08.395Z,100.00
2023-03-21T06:31:34.983Z,100.00
2023-03-21T06:34:01.511Z,100.00
2023-03-21T06:36:28.038Z,100.00
2023-03-21T06:38:54.442Z,100.00
2023-03-21T06:41:21.286Z,100.00
2023-03-21T06:43:48.414Z,100.00
2023-03-21T06:46:14.879Z,100.00
2023-03-21T06:48:44.431Z,100.00
2023-03-21T06:51:12.914Z,100.00
2023-03-21T06:53:39.551Z,100.00
2023-03-21T06:56:06.240Z,100.00
2023-03-21T06:58:32.733Z,100.00
2023-03-21T07:01:00.474Z,100.00
2023-03-21T07:03:27.105Z,100.00
2023-03-21T07:05:53.674Z,100.00
2023-03-21T07:08:21.134Z,100.00
2023-03-21T07:10:47.655Z,100.00
2023-03-21T07:13:14.794Z,100.00
2023-03-21T07:15:41.925Z,100.00
2023-03-21T07:18:09.544Z,100.00
2023-03-21T07:20:38.070Z,100.00
2023-03-21T07:23:05.124Z,100.00
2023-03-21T07:25:31.567Z,100.00
2023-03-21T07:27:58.179Z,100.00
2023-03-21T07:30:24.700Z,100.00
2023-03-21T07:32:51.128Z,99.97
2023-03-21T07:35:18.208Z,100.00
2023-03-21T07:37:44.774Z,100.00
2023-03-21T07:40:12.345Z,100.00
2023-03-21T07:42:42.693Z,100.00
2023-03-21T07:45:10.766Z,99.89
2023-03-21T07:47:37.210Z,99.98
2023-03-21T07:50:04.458Z,99.89
2023-03-21T07:52:33.189Z,99.81
2023-03-21T07:54:59.763Z,99.64
2023-03-21T07:57:26.232Z,99.88
2023-03-21T07:59:52.741Z,100.00
2023-03-21T08:02:19.209Z,99.92
2023-03-21T08:04:45.881Z,100.00
2023-03-21T08:07:12.470Z,99.97
2023-03-21T08:09:39.016Z,99.60
2023-03-21T08:12:08.318Z,99.98
2023-03-21T08:14:35.905Z,99.86
2023-03-21T08:17:03.432Z,99.93
2023-03-21T08:19:30.011Z,99.64
2023-03-21T08:21:59.727Z,99.90
2023-03-21T08:24:28.207Z,99.51
2023-03-21T08:26:54.831Z,99.92
2023-03-21T08:29:21.693Z,99.53
2023-03-21T08:31:48.199Z,99.83
2023-03-21T08:34:14.785Z,99.86
2023-03-21T08:36:41.775Z,99.71
2023-03-21T08:39:08.188Z,100.00
2023-03-21T08:41:36.332Z,100.00
2023-03-21T08:44:05.765Z,100.00
2023-03-21T08:46:32.689Z,100.00
2023-03-21T08:48:59.194Z,99.95
2023-03-21T08:51:27.054Z,99.88
2023-03-21T08:53:53.448Z,99.75
2023-03-21T08:56:19.904Z,99.61
2023-03-21T08:58:47.365Z,99.54
2023-03-21T09:01:15.437Z,99.38
2023-03-21T09:03:43.227Z,99.37
2023-03-21T09:06:10.795Z,99.57
2023-03-21T09:08:38.252Z,99.47
2023-03-21T09:11:04.886Z,99.08
2023-03-21T09:13:31.366Z,98.96
2023-03-21T09:16:01.235Z,98.71
2023-03-21T09:18:50.620Z,98.89
2023-03-21T09:21:18.303Z,99.02
2023-03-21T09:23:45.100Z,98.97
2023-03-21T09:26:12.577Z,98.70
2023-03-21T09:28:40.482Z,98.17
2023-03-21T09:31:11.258Z,97.71
2023-03-21T09:33:40.091Z,97.64
2023-03-21T09:36:11.874Z,97.61
2023-03-21T09:38:40.610Z,97.60
2023-03-21T09:41:26.047Z,97.27
2023-03-21T09:44:24.730Z,96.95
2023-03-21T09:47:03.820Z,97.01
2023-03-21T09:49:36.160Z,96.43
2023-03-21T09:52:12.326Z,96.18
2023-03-21T09:54:43.889Z,95.86
2023-03-21T09:57:40.103Z,95.77
2023-03-21T10:00:16.375Z,94.89
2023-03-21T10:02:49.912Z,95.07
2023-03-21T10:05:31.040Z,95.17
2023-03-21T10:08:05.365Z,95.17
2023-03-21T10:10:38.021Z,94.87
2023-03-21T10:13:14.042Z,94.70
2023-03-21T10:15:40.838Z,94.82
2023-03-21T10:18:14.116Z,94.19
2023-03-21T10:20:42.796Z,93.67
2023-03-21T10:23:14.875Z,92.92
2023-03-21T10:25:46.303Z,93.17
2023-03-21T10:28:18.567Z,93.30
2023-03-21T10:30:50.720Z,93.07
2023-03-21T10:33:22.801Z,92.88
2023-03-21T10:35:55.512Z,92.82
2023-03-21T10:38:24.771Z,92.28
2023-03-21T10:40:51.463Z,92.15
2023-03-21T10:43:27.336Z,91.73
2023-03-21T10:45:57.590Z,91.84
2023-03-21T10:48:24.507Z,91.46
2023-03-21T10:50:55.150Z,91.39
2023-03-21T10:53:29.195Z,90.82
2023-03-21T10:55:59.002Z,90.55
2023-03-21T10:58:35.076Z,90.01
2023-03-21T11:01:04.924Z,90.04
2023-03-21T11:03:54.419Z,90.06
2023-03-21T11:06:31.025Z,88.31
2023-03-21T11:09:06.922Z,88.62
2023-03-21T11:11:38.237Z,88.09
2023-03-21T11:14:07.480Z,88.08
2023-03-21T11:16:41.192Z,88.21
2023-03-21T11:19:14.826Z,87.71
2023-03-21T11:21:41.592Z,87.40
2023-03-21T11:24:14.792Z,87.51
2023-03-21T11:26:44.452Z,87.73
2023-03-21T11:29:23.627Z,87.68
2023-03-21T11:31:50.500Z,87.45
2023-03-21T11:34:49.242Z,87.34
2023-03-21T11:37:26.286Z,86.59
2023-03-21T11:40:07.148Z,86.60
2023-03-21T11:42:42.595Z,86.19
2023-03-21T11:45:30.142Z,86.27
2023-03-21T11:47:59.101Z,85.51
2023-03-21T11:50:34.328Z,85.63
2023-03-21T11:53:40.278Z,85.60
2023-03-21T11:56:15.855Z,84.74
2023-03-21T11:59:06.794Z,85.01
2023-03-21T12:02:07.098Z,84.92
2023-03-21T12:04:52.824Z,85.11
2023-03-21T12:07:46.221Z,84.87
2023-03-21T12:10:15.730Z,84.36
2023-03-21T12:13:03.451Z,84.87
2023-03-21T12:15:55.963Z,84.61
2023-03-21T12:18:57.656Z,84.34
2023-03-21T12:21:30.430Z,83.42
2023-03-21T12:24:11.906Z,82.22
2023-03-21T12:26:58.092Z,82.27
2023-03-21T12:29:40.156Z,82.09
2023-03-21T12:32:18.634Z,81.72
2023-03-21T12:35:13.742Z,82.20
2023-03-21T12:37:45.824Z,80.91
2023-03-21T12:40:31.003Z,80.19
2023-03-21T12:43:07.911Z,78.80
2023-03-21T12:45:47.003Z,75.16
2023-03-21T12:48:36.546Z,74.85
2023-03-21T12:51:07.086Z,74.92
2023-03-21T12:53:47.269Z,74.46
2023-03-21T12:56:20.820Z,74.16
2023-03-21T12:58:56.225Z,73.37
2023-03-21T13:01:24.426Z,69.77
2023-03-21T13:04:21.216Z,69.65
2023-03-21T13:06:51.161Z,69.77
2023-03-21T13:09:39.161Z,66.76
2023-03-21T13:12:17.888Z,67.55
2023-03-21T13:15:12.417Z,66.07
2023-03-21T13:17:52.378Z,66.72
2023-03-21T13:20:48.810Z,66.83
2023-03-21T13:23:15.497Z,66.96
2023-03-21T13:25:46.513Z,67.21
2023-03-21T13:28:34.917Z,67.88
2023-03-21T13:31:41.924Z,68.32
2023-03-21T13:34:17.252Z,69.79
2023-03-21T13:36:46.350Z,70.26
2023-03-21T13:39:19.218Z,71.02
2023-03-21T13:41:49.285Z,71.25
2023-03-21T13:44:22.217Z,70.81
2023-03-21T13:47:00.696Z,71.13
2023-03-21T13:49:33.449Z,71.71
2023-03-21T13:52:03.553Z,71.94
2023-03-21T13:54:54.480Z,71.78
2023-03-21T13:57:40.335Z,72.11
2023-03-21T14:00:29.345Z,72.40
2023-03-21T14:03:17.478Z,72.28
2023-03-21T14:05:49.801Z,71.86
2023-03-21T14:08:31.198Z,72.16
2023-03-21T14:11:07.274Z,72.61
2023-03-21T14:13:38.111Z,73.08
2023-03-21T14:16:17.131Z,73.57
2023-03-21T14:18:54.456Z,74.07
2023-03-21T14:21:31.200Z,74.26
2023-03-21T14:24:07.749Z,73.48
2023-03-21T14:26:37.788Z,73.79
2023-03-21T14:29:25.176Z,74.48
2023-03-21T14:31:53.266Z,73.94
2023-03-21T14:34:22.024Z,74.17
2023-03-21T14:36:57.571Z,74.65
2023-03-21T14:39:31.193Z,74.71
2023-03-21T14:42:06.401Z,74.66
2023-03-21T14:44:53.379Z,74.70
2023-03-21T14:47:23.023Z,75.02
2023-03-21T14:49:50.960Z,75.06
2023-03-21T14:52:29.448Z,75.01
2023-03-21T14:54:56.548Z,75.44
2023-03-21T14:57:26.439Z,75.53
2023-03-21T14:59:55.337Z,76.09
2023-03-21T15:02:35.921Z,76.26
2023-03-21T15:05:21.744Z,76.40
2023-03-21T15:08:15.094Z,76.32
2023-03-21T15:11:05.967Z,76.19
2023-03-21T15:13:42.391Z,76.43
2023-03-21T15:16:10.298Z,77.27
2023-03-21T15:18:39.162Z,77.32
2023-03-21T15:21:18.711Z,77.51
2023-03-21T15:23:48.222Z,78.08
2023-03-21T15:26:16.954Z,78.63
2023-03-21T15:28:46.858Z,79.17
2023-03-21T15:31:19.284Z,79.55
2023-03-21T15:33:50.659Z,79.71
2023-03-21T15:36:21.066Z,80.01
2023-03-21T15:38:48.990Z,80.11
2023-03-21T15:41:21.486Z,80.22
2023-03-21T15:43:55.047Z,80.68
2023-03-21T15:46:41.036Z,80.98
2023-03-21T15:49:13.198Z,81.03
2023-03-21T15:51:53.251Z,81.42
2023-03-21T15:54:27.090Z,81.68
2023-03-21T15:57:01.226Z,82.45
2023-03-21T15:59:32.846Z,82.84
2023-03-21T16:01:59.556Z,83.48
2023-03-21T16:04:26.667Z,84.45
2023-03-21T16:07:01.643Z,85.25
2023-03-21T16:09:28.763Z,85.61
2023-03-21T16:11:57.570Z,86.45
2023-03-21T16:14:28.256Z,87.17
2023-03-21T16:16:56.312Z,87.91
2023-03-21T16:19:27.643Z,88.58
2023-03-21T16:21:55.505Z,88.57
2023-03-21T16:24:24.825Z,88.58
2023-03-21T16:26:52.156Z,88.64
2023-03-21T16:29:19.741Z,88.48
2023-03-21T16:31:47.990Z,88.54
2023-03-21T16:34:14.635Z,88.51
2023-03-21T16:36:41.679Z,88.52
2023-03-21T16:39:26.879Z,88.42
2023-03-21T16:41:53.269Z,88.70
2023-03-21T16:44:20.466Z,88.58
2023-03-21T16:46:47.470Z,88.72
2023-03-21T16:49:24.490Z,88.70
2023-03-21T16:51:52.078Z,88.41
2023-03-21T16:54:18.517Z,88.29
2023-03-21T16:56:48.771Z,88.37
2023-03-21T16:59:15.426Z,88.26
2023-03-21T17:01:46.033Z,88.04
2023-03-21T17:04:12.971Z,87.72
2023-03-21T17:06:44.763Z,87.96
2023-03-21T17:09:14.247Z,88.03
2023-03-21T17:11:41.625Z,88.12
2023-03-21T17:14:09.825Z,88.27
2023-03-21T17:16:36.972Z,88.30
2023-03-21T17:19:06.988Z,88.20
2023-03-21T17:21:33.406Z,88.35
2023-03-21T17:23:59.947Z,88.26
2023-03-21T17:26:29.073Z,88.21
2023-03-21T17:29:02.994Z,88.19
2023-03-21T17:31:36.848Z,88.24
2023-03-21T17:34:04.572Z,88.61
2023-03-21T17:36:33.876Z,88.66
2023-03-21T17:39:01.136Z,88.85
2023-03-21T17:41:28.556Z,89.06
2023-03-21T17:43:55.939Z,89.10
2023-03-21T17:46:28.962Z,89.46
2023-03-21T17:48:56.059Z,89.51
2023-03-21T17:51:25.925Z,89.57
2023-03-21T17:53:52.356Z,89.96
2023-03-21T17:56:27.772Z,89.95
2023-03-21T17:58:56.097Z,90.08
2023-03-21T18:01:23.273Z,90.19
2023-03-21T18:03:50.993Z,90.14
2023-03-21T18:06:19.956Z,90.40
2023-03-21T18:08:47.454Z,90.46
2023-03-21T18:11:15.053Z,90.55
2023-03-21T18:13:43.509Z,90.67
2023-03-21T18:16:13.871Z,90.76
2023-03-21T18:18:40.443Z,91.08
2023-03-21T18:21:10.881Z,91.02
2023-03-21T18:23:38.873Z,90.92
2023-03-21T18:26:06.561Z,91.16
2023-03-21T18:28:33.601Z,91.21
2023-03-21T18:31:10.634Z,91.37
2023-03-21T18:33:45.019Z,91.21
2023-03-21T18:36:14.914Z,91.38
2023-03-21T18:38:42.238Z,91.37
2023-03-21T18:41:08.847Z,91.42
2023-03-21T18:46:23.220Z,92.00
2023-03-21T18:48:51.567Z,91.58
2023-03-21T18:51:19.273Z,91.69
2023-03-21T18:53:45.781Z,91.73
2023-03-21T18:56:46.636Z,91.86
2023-03-21T18:58:59.236Z,91.95
2023-03-21T19:01:25.868Z,91.79
2023-03-21T19:04:16.300Z,91.93
2023-03-21T19:06:48.479Z,91.74
2023-03-21T19:09:15.127Z,91.59
2023-03-21T19:11:44.901Z,91.32
2023-03-21T19:14:13.797Z,91.00
2023-03-21T19:17:14.999Z,90.35
2023-03-21T19:19:28.479Z,89.40
2023-03-21T19:21:55.656Z,89.16
2023-03-21T19:24:28.357Z,88.78
2023-03-21T19:26:55.636Z,88.98
2023-03-21T19:29:22.228Z,88.87
2023-03-21T19:31:51.014Z,89.19
2023-03-21T19:34:18.176Z,89.31
2023-03-21T19:36:45.922Z,89.19
2023-03-21T19:39:19.411Z,89.39
2023-03-21T19:41:46.212Z,89.76
2023-03-21T19:44:12.705Z,90.11
2023-03-21T19:46:39.391Z,90.26
2023-03-21T19:49:06.668Z,90.57
2023-03-21T19:51:33.640Z,90.95
2023-03-21T19:54:03.930Z,90.95
2023-03-21T19:56:31.782Z,91.25
2023-03-21T19:58:59.118Z,91.92
2023-03-21T20:01:26.139Z,92.36
2023-03-21T20:03:55.757Z,92.58
2023-03-21T20:06:23.878Z,92.87
2023-03-21T20:11:38.633Z,93.47
2023-03-21T20:14:06.232Z,94.37
2023-03-21T20:16:35.844Z,94.31
2023-03-21T20:19:09.016Z,94.45
2023-03-21T20:21:46.161Z,94.78
2023-03-21T20:24:16.843Z,94.62
2023-03-21T20:26:45.375Z,95.31
2023-03-21T20:30:05.449Z,95.32
2023-03-21T20:31:58.755Z,95.24
2023-03-21T20:34:25.224Z,95.13
2023-03-21T20:36:54.900Z,94.70
2023-03-21T20:39:22.045Z,94.58
2023-03-21T20:41:48.913Z,94.08
2023-03-21T20:44:45.162Z,93.99
2023-03-21T20:47:05.477Z,94.05
2023-03-21T20:49:32.341Z,93.99
2023-03-21T20:54:45.649Z,93.68
2023-03-21T20:57:12.423Z,93.60
2023-03-21T20:59:39.321Z,93.78
2023-03-21T21:02:05.722Z,93.76
2023-03-21T21:05:15.661Z,93.84
2023-03-21T21:07:21.806Z,93.68
2023-03-21T21:09:49.405Z,93.91
2023-03-21T21:12:19.271Z,93.86
2023-03-21T21:14:47.728Z,93.79
2023-03-21T21:17:31.098Z,93.86
2023-03-21T21:20:02.295Z,93.90
2023-03-21T21:22:28.800Z,93.94
2023-03-21T21:24:55.272Z,93.67
2023-03-21T21:27:22.138Z,93.98
2023-03-21T21:29:50.234Z,93.52
2023-03-21T21:32:18.581Z,93.53
2023-03-21T21:34:47.614Z,93.61
2023-03-21T21:37:15.170Z,93.52
2023-03-21T21:39:41.928Z,93.50
2023-03-21T21:42:08.441Z,93.30
2023-03-21T21:44:34.960Z,93.38
2023-03-21T21:47:04.142Z,93.24
2023-03-21T21:49:31.150Z,93.36
2023-03-21T21:51:59.727Z,93.27
2023-03-21T21:54:29.996Z,93.08
2023-03-21T21:56:58.011Z,92.98
2023-03-21T21:59:24.641Z,92.83
2023-03-21T22:01:51.389Z,92.66
2023-03-21T22:04:18.950Z,92.68
2023-03-21T22:06:47.429Z,92.70
2023-03-21T22:09:15.631Z,92.50
2023-03-21T22:11:42.064Z,92.27
2023-03-21T22:14:08.416Z,92.22
2023-03-21T22:16:34.830Z,92.23
2023-03-21T22:19:01.367Z,92.01
2023-03-21T22:21:30.688Z,91.74
2023-03-21T22:23:57.244Z,91.76
2023-03-21T22:26:23.853Z,91.61
2023-03-21T22:28:50.326Z,91.56
2023-03-21T22:31:17.127Z,91.51
2023-03-21T22:33:44.955Z,91.55
2023-03-21T22:36:11.708Z,91.07
2023-03-21T22:38:38.597Z,91.16
2023-03-21T22:41:06.432Z,91.12
2023-03-21T22:43:34.515Z,91.17
2023-03-21T22:46:05.686Z,91.08
2023-03-21T22:48:32.884Z,90.83
2023-03-21T22:51:00.328Z,91.33
2023-03-21T22:53:26.836Z,91.13
2023-03-21T22:55:53.674Z,91.26
2023-03-21T22:58:20.850Z,91.10
2023-03-21T23:00:47.516Z,91.21
2023-03-21T23:03:16.781Z,91.23
2023-03-21T23:05:44.699Z,91.25
2023-03-21T23:08:12.722Z,91.26
2023-03-21T23:10:40.500Z,91.07
2023-03-21T23:13:07.152Z,91.30
2023-03-21T23:15:33.958Z,91.24
2023-03-21T23:18:00.405Z,90.95
2023-03-21T23:20:27.465Z,91.02
2023-03-21T23:22:54.874Z,91.13
2023-03-21T23:25:21.494Z,91.16
2023-03-21T23:27:48.189Z,90.75
2023-03-21T23:30:14.758Z,91.19
2023-03-21T23:32:41.890Z,90.84
2023-03-21T23:35:08.837Z,90.90
2023-03-21T23:37:35.306Z,91.04
2023-03-21T23:40:02.166Z,90.84
2023-03-21T23:42:30.492Z,90.77
2023-03-21T23:44:57.230Z,90.95
2023-03-21T23:47:23.898Z,90.91
2023-03-21T23:49:52.718Z,91.18
2023-03-21T23:52:19.296Z,90.88
2023-03-21T23:54:45.854Z,90.90
2023-03-21T23:57:12.349Z,91.04
2023-03-21T23:59:38.707Z,90.92
